createdAt,value
2018-08-22T00:02:33.425Z,22.66
2018-08-22T00:05:08.056Z,22.66
2018-08-22T00:07:42.742Z,22.62
2018-08-22T00:10:17.266Z,22.55
2018-08-22T00:12:51.748Z,22.46
2018-08-22T00:15:26.248Z,22.38
2018-08-22T00:18:00.852Z,22.33
2018-08-22T00:20:35.492Z,22.33
2018-08-22T00:23:10.120Z,22.31
2018-08-22T00:25:44.803Z,22.31
2018-08-22T00:28:19.517Z,22.21
2018-08-22T00:30:54.184Z,22.18
2018-08-22T00:33:28.778Z,22.18
2018-08-22T00:36:03.314Z,22.17
2018-08-22T00:38:37.940Z,22.17
2018-08-22T00:41:12.534Z,22.12
2018-08-22T00:43:47.244Z,22.05
2018-08-22T00:46:22.937Z,22.01
2018-08-22T00:49:09.917Z,22.06
2018-08-22T00:51:51.867Z,22.08
2018-08-22T00:54:26.343Z,22.10
2018-08-22T00:57:00.902Z,22.09
2018-08-22T00:59:35.784Z,22.05
2018-08-22T01:02:10.360Z,22.05
2018-08-22T01:04:45.092Z,21.99
2018-08-22T01:07:19.729Z,21.94
2018-08-22T01:09:54.188Z,21.90
2018-08-22T01:12:28.815Z,21.89
2018-08-22T01:15:03.621Z,21.91
2018-08-22T01:17:38.058Z,21.85
2018-08-22T01:20:18.785Z,21.85
2018-08-22T01:22:53.423Z,21.84
2018-08-22T01:25:28.090Z,21.81
2018-08-22T01:28:02.760Z,21.70
2018-08-22T01:30:37.260Z,21.74
2018-08-22T01:33:11.845Z,21.64
2018-08-22T01:35:46.884Z,21.56
2018-08-22T01:38:21.489Z,21.50
2018-08-22T01:40:56.049Z,21.37
2018-08-22T01:43:30.571Z,21.41
2018-08-22T01:46:05.384Z,21.43
2018-08-22T01:48:39.849Z,21.44
2018-08-22T01:51:14.329Z,21.46
2018-08-22T01:53:48.736Z,21.59
2018-08-22T01:56:23.344Z,21.63
2018-08-22T01:58:57.940Z,21.72
2018-08-22T02:01:32.527Z,21.62
2018-08-22T02:04:07.277Z,21.57
2018-08-22T02:06:41.892Z,21.59
2018-08-22T02:09:16.577Z,21.52
2018-08-22T02:11:51.089Z,21.46
2018-08-22T02:14:25.618Z,21.32
2018-08-22T02:17:00.448Z,21.35
2018-08-22T02:19:35.079Z,21.33
2018-08-22T02:22:09.724Z,21.25
2018-08-22T02:24:44.276Z,21.31
2018-08-22T02:27:18.882Z,21.35
2018-08-22T02:29:53.488Z,21.36
2018-08-22T02:32:28.155Z,21.34
2018-08-22T02:35:02.784Z,21.39
2018-08-22T02:37:37.411Z,21.41
2018-08-22T02:40:11.975Z,21.37
2018-08-22T02:42:46.477Z,21.40
2018-08-22T02:45:21.125Z,21.38
2018-08-22T02:47:55.672Z,21.29
2018-08-22T02:50:30.093Z,21.36
2018-08-22T02:53:04.648Z,21.41
2018-08-22T02:55:39.234Z,21.44
2018-08-22T02:58:13.772Z,21.37
2018-08-22T03:00:48.421Z,21.34
2018-08-22T03:03:23.049Z,21.24
2018-08-22T03:05:57.553Z,21.19
2018-08-22T03:08:32.137Z,21.19
2018-08-22T03:11:06.705Z,21.13
2018-08-22T03:13:41.344Z,21.08
2018-08-22T03:16:15.964Z,21.07
2018-08-22T03:18:50.676Z,21.18
2018-08-22T03:21:25.329Z,21.25
2018-08-22T03:23:59.841Z,21.20
2018-08-22T03:26:34.468Z,21.27
2018-08-22T03:29:09.017Z,21.29
2018-08-22T03:31:43.665Z,21.27
2018-08-22T03:37:16.925Z,21.20
2018-08-22T03:39:51.458Z,21.06
2018-08-22T03:42:26.101Z,21.11
2018-08-22T03:45:00.840Z,21.18
2018-08-22T03:47:35.479Z,21.14
2018-08-22T03:50:10.199Z,21.19
2018-08-22T03:52:44.824Z,21.33
2018-08-22T03:55:19.389Z,21.34
2018-08-22T03:57:53.965Z,21.35
2018-08-22T04:00:28.557Z,21.25
2018-08-22T04:03:03.070Z,21.28
2018-08-22T04:05:37.664Z,21.22
2018-08-22T04:08:12.370Z,21.24
2018-08-22T04:10:46.816Z,21.27
2018-08-22T04:13:32.828Z,21.21
2018-08-22T04:16:07.394Z,21.20
2018-08-22T04:18:41.882Z,21.19
2018-08-22T04:21:16.468Z,21.21
2018-08-22T04:23:51.061Z,21.17
2018-08-22T04:26:25.844Z,21.14
2018-08-22T04:29:00.274Z,21.12
2018-08-22T04:31:35.185Z,21.07
2018-08-22T04:34:09.849Z,21.05
2018-08-22T04:36:44.945Z,20.99
2018-08-22T04:39:19.440Z,20.94
2018-08-22T04:41:54.025Z,20.96
2018-08-22T04:44:28.695Z,20.93
2018-08-22T04:47:03.405Z,20.95
2018-08-22T04:49:38.057Z,20.98
2018-08-22T04:52:13.069Z,20.93
2018-08-22T04:54:47.797Z,20.91
2018-08-22T04:57:22.320Z,20.99
2018-08-22T04:59:56.888Z,20.98
2018-08-22T05:02:31.572Z,20.93
2018-08-22T05:05:06.185Z,20.96
2018-08-22T05:07:40.737Z,21.24
2018-08-22T05:10:15.401Z,21.35
2018-08-22T05:12:50.039Z,21.21
2018-08-22T05:15:24.532Z,21.28
2018-08-22T05:17:59.193Z,21.37
2018-08-22T05:20:33.918Z,21.38
2018-08-22T05:23:08.609Z,21.53
2018-08-22T05:25:43.169Z,21.65
2018-08-22T05:28:17.784Z,21.64
2018-08-22T05:30:52.264Z,21.72
2018-08-22T05:33:26.837Z,21.72
2018-08-22T05:36:02.419Z,21.97
2018-08-22T05:38:36.991Z,21.99
2018-08-22T05:41:11.537Z,22.18
2018-08-22T05:43:46.165Z,22.28
2018-08-22T05:46:21.187Z,22.16
2018-08-22T05:48:55.712Z,22.28
2018-08-22T05:51:30.330Z,22.29
2018-08-22T05:54:04.942Z,22.35
2018-08-22T05:56:39.400Z,22.58
2018-08-22T05:59:14.196Z,24.14
2018-08-22T06:01:48.766Z,25.16
2018-08-22T06:04:23.401Z,24.94
2018-08-22T06:06:57.992Z,24.14
2018-08-22T06:09:32.474Z,25.21
2018-08-22T06:12:07.319Z,26.32
2018-08-22T06:14:41.990Z,27.04
2018-08-22T06:17:16.613Z,28.03
2018-08-22T06:19:51.421Z,29.33
2018-08-22T06:22:25.934Z,29.57
2018-08-22T06:25:00.578Z,30.02
2018-08-22T06:27:35.656Z,30.18
2018-08-22T06:30:11.177Z,31.54
2018-08-22T06:32:45.674Z,32.13
2018-08-22T06:35:20.289Z,32.67
2018-08-22T06:37:54.824Z,32.42
2018-08-22T06:40:29.397Z,32.80
2018-08-22T06:43:04.152Z,32.67
2018-08-22T06:45:38.609Z,33.08
2018-08-22T06:48:13.176Z,34.96
2018-08-22T06:50:47.813Z,34.30
2018-08-22T06:53:22.521Z,34.11
2018-08-22T06:55:57.033Z,33.93
2018-08-22T06:58:31.481Z,34.05
2018-08-22T07:01:06.064Z,33.84
2018-08-22T07:03:40.602Z,36.02
2018-08-22T07:06:15.173Z,35.20
2018-08-22T07:08:49.613Z,34.02
2018-08-22T07:11:24.270Z,33.76
2018-08-22T07:13:58.929Z,33.17
2018-08-22T07:16:33.500Z,35.94
2018-08-22T07:19:08.126Z,36.20
2018-08-22T07:21:42.679Z,36.82
2018-08-22T07:24:17.272Z,36.90
2018-08-22T07:26:51.991Z,37.12
2018-08-22T07:29:26.705Z,36.63
2018-08-22T07:32:01.264Z,36.68
2018-08-22T07:34:41.453Z,35.76
2018-08-22T07:37:16.325Z,35.72
2018-08-22T07:39:50.917Z,36.59
2018-08-22T07:42:25.529Z,38.51
2018-08-22T07:45:00.178Z,36.36
2018-08-22T07:47:34.737Z,35.53
2018-08-22T07:50:09.330Z,36.28
2018-08-22T07:52:50.640Z,36.04
2018-08-22T07:55:25.312Z,35.07
2018-08-22T07:58:00.037Z,34.88
2018-08-22T08:06:56.550Z,33.64
2018-08-22T08:09:31.096Z,32.76
2018-08-22T08:12:05.796Z,31.66
2018-08-22T08:14:40.449Z,31.23
2018-08-22T08:17:15.233Z,31.23
2018-08-22T08:19:49.741Z,31.05
2018-08-22T08:22:24.362Z,31.05
2018-08-22T08:24:58.932Z,32.07
2018-08-22T08:27:33.553Z,31.33
2018-08-22T08:30:08.108Z,30.50
2018-08-22T08:32:42.753Z,29.46
2018-08-22T08:35:17.474Z,29.18
2018-08-22T08:37:52.328Z,29.72
2018-08-22T08:40:26.725Z,29.94
2018-08-22T08:43:02.320Z,30.02
2018-08-22T08:45:38.954Z,28.49
2018-08-22T08:48:13.533Z,29.61
2018-08-22T08:50:48.306Z,30.69
2018-08-22T08:53:27.146Z,31.74
2018-08-22T08:56:03.447Z,34.77
2018-08-22T08:58:38.194Z,32.86
2018-08-22T09:01:12.704Z,34.38
2018-08-22T09:03:47.458Z,35.83
2018-08-22T09:06:22.032Z,35.17
2018-08-22T09:08:56.692Z,34.69
2018-08-22T09:11:31.380Z,32.91
2018-08-22T09:14:07.184Z,34.13
2018-08-22T09:16:41.752Z,31.86
2018-08-22T09:19:16.281Z,31.41
2018-08-22T09:21:50.840Z,31.79
2018-08-22T09:24:25.381Z,32.92
2018-08-22T09:26:59.845Z,33.06
2018-08-22T09:29:34.457Z,35.28
2018-08-22T09:32:09.168Z,34.34
2018-08-22T09:34:43.852Z,34.62
2018-08-22T09:37:18.705Z,32.83
2018-08-22T09:39:53.168Z,36.24
2018-08-22T09:42:27.648Z,35.35
2018-08-22T09:45:02.360Z,32.59
2018-08-22T09:47:37.116Z,34.01
2018-08-22T09:50:11.678Z,33.25
2018-08-22T09:52:46.301Z,31.42
2018-08-22T09:55:20.888Z,30.54
2018-08-22T09:57:55.487Z,29.64
2018-08-22T10:00:35.459Z,30.68
2018-08-22T10:03:09.918Z,31.11
2018-08-22T10:05:44.659Z,30.68
2018-08-22T10:08:19.161Z,32.17
2018-08-22T10:10:53.837Z,33.47
2018-08-22T10:13:28.392Z,34.01
2018-08-22T10:16:03.669Z,35.68
2018-08-22T10:18:38.325Z,37.32
2018-08-22T10:21:12.958Z,36.67
2018-08-22T10:23:47.633Z,36.06
2018-08-22T10:26:22.493Z,33.70
2018-08-22T10:28:57.130Z,32.69
2018-08-22T10:31:31.845Z,31.54
2018-08-22T10:34:10.377Z,33.10
2018-08-22T10:36:45.880Z,34.48
2018-08-22T10:39:20.451Z,34.40
2018-08-22T10:41:54.980Z,35.07
2018-08-22T10:44:29.735Z,35.96
2018-08-22T10:47:04.254Z,37.36
2018-08-22T10:49:38.748Z,39.88
2018-08-22T10:52:13.378Z,39.51
2018-08-22T10:54:47.869Z,38.33
2018-08-22T10:57:22.380Z,34.83
2018-08-22T11:00:04.877Z,36.19
2018-08-22T11:02:44.164Z,36.25
2018-08-22T11:05:31.057Z,35.15
2018-08-22T11:08:06.798Z,35.00
2018-08-22T11:10:41.677Z,33.85
2018-08-22T11:13:16.260Z,32.83
2018-08-22T11:15:51.036Z,33.96
2018-08-22T11:18:25.613Z,32.66
2018-08-22T11:21:11.786Z,33.43
2018-08-22T11:23:57.693Z,33.08
2018-08-22T11:26:43.504Z,32.47
2018-08-22T11:29:29.472Z,31.53
2018-08-22T11:32:15.316Z,31.33
2018-08-22T11:34:50.921Z,31.54
2018-08-22T11:37:25.621Z,31.50
2018-08-22T11:40:00.249Z,31.67
2018-08-22T11:42:34.769Z,30.87
2018-08-22T11:45:09.353Z,31.00
2018-08-22T11:47:44.065Z,30.83
2018-08-22T11:50:18.757Z,31.31
2018-08-22T11:52:53.450Z,30.93
2018-08-22T11:55:28.118Z,31.06
2018-08-22T11:58:03.025Z,31.11
2018-08-22T12:00:37.729Z,30.52
2018-08-22T12:03:12.252Z,30.24
2018-08-22T12:05:46.809Z,30.43
2018-08-22T12:08:21.332Z,30.46
2018-08-22T12:10:55.695Z,30.06
2018-08-22T12:13:30.122Z,30.15
2018-08-22T12:16:04.991Z,29.82
2018-08-22T12:18:39.793Z,29.93
2018-08-22T12:21:14.348Z,30.03
2018-08-22T12:23:48.892Z,30.38
2018-08-22T12:26:23.541Z,30.66
2018-08-22T12:28:58.071Z,30.39
2018-08-22T12:31:32.745Z,30.52
2018-08-22T12:34:07.905Z,30.28
2018-08-22T12:39:45.112Z,30.44
2018-08-22T12:42:19.699Z,30.47
2018-08-22T12:44:54.734Z,30.15
2018-08-22T12:47:29.253Z,30.48
2018-08-22T12:50:03.910Z,30.56
2018-08-22T12:52:38.408Z,30.79
2018-08-22T12:55:13.234Z,30.86
2018-08-22T12:57:47.705Z,30.34
2018-08-22T13:00:22.353Z,30.21
2018-08-22T13:02:56.848Z,30.06
2018-08-22T13:05:31.394Z,30.29
2018-08-22T13:08:06.268Z,30.43
2018-08-22T13:10:40.844Z,30.72
2018-08-22T13:13:15.576Z,30.42
2018-08-22T13:15:50.113Z,30.43
2018-08-22T13:18:24.723Z,30.66
2018-08-22T13:20:59.229Z,30.26
2018-08-22T13:23:34.049Z,30.18
2018-08-22T13:26:08.475Z,30.53
2018-08-22T13:28:43.040Z,30.81
2018-08-22T13:31:17.582Z,30.97
2018-08-22T13:33:52.058Z,30.64
2018-08-22T13:36:26.464Z,30.43
2018-08-22T13:39:01.202Z,30.45
2018-08-22T13:41:48.220Z,30.25
2018-08-22T13:44:23.384Z,29.87
2018-08-22T13:46:57.992Z,30.36
2018-08-22T13:49:32.597Z,30.71
2018-08-22T13:52:07.245Z,30.65
2018-08-22T13:54:41.798Z,30.60
2018-08-22T13:57:16.334Z,30.55
2018-08-22T13:59:50.833Z,30.64
2018-08-22T14:02:25.765Z,30.89
2018-08-22T14:05:00.404Z,30.90
2018-08-22T14:07:35.041Z,30.96
2018-08-22T14:10:09.680Z,30.58
2018-08-22T14:12:44.184Z,30.55
2018-08-22T14:15:18.749Z,30.71
2018-08-22T14:17:53.364Z,30.46
2018-08-22T14:20:27.809Z,30.72
2018-08-22T14:23:02.487Z,30.86
2018-08-22T14:25:37.152Z,31.06
2018-08-22T14:28:12.744Z,31.24
2018-08-22T14:30:47.470Z,31.18
2018-08-22T14:33:22.133Z,31.41
2018-08-22T14:35:56.725Z,31.64
2018-08-22T14:38:31.199Z,32.16
2018-08-22T14:41:05.709Z,32.75
2018-08-22T14:43:40.718Z,33.54
2018-08-22T14:46:15.161Z,33.76
2018-08-22T14:48:49.685Z,33.68
2018-08-22T14:51:24.353Z,33.80
2018-08-22T14:53:58.923Z,33.79
2018-08-22T14:56:33.616Z,34.14
2018-08-22T14:59:08.173Z,34.22
2018-08-22T15:01:42.714Z,34.45
2018-08-22T15:04:17.413Z,34.48
2018-08-22T15:06:51.983Z,34.63
2018-08-22T15:09:26.865Z,34.98
2018-08-22T15:12:01.357Z,35.67
2018-08-22T15:14:36.009Z,35.65
2018-08-22T15:17:10.871Z,35.74
2018-08-22T15:19:45.580Z,35.02
2018-08-22T15:22:20.321Z,34.49
2018-08-22T15:24:54.921Z,35.03
2018-08-22T15:27:29.472Z,33.93
2018-08-22T15:30:04.300Z,33.51
2018-08-22T15:32:38.938Z,33.67
2018-08-22T15:35:13.555Z,33.35
2018-08-22T15:37:48.152Z,33.69
2018-08-22T15:40:22.745Z,33.49
2018-08-22T15:42:57.248Z,33.43
2018-08-22T15:45:31.713Z,33.88
2018-08-22T15:48:06.241Z,33.82
2018-08-22T15:50:40.769Z,34.19
2018-08-22T15:53:15.481Z,33.83
2018-08-22T15:55:50.017Z,34.08
2018-08-22T15:58:24.617Z,33.66
2018-08-22T16:00:59.026Z,33.62
2018-08-22T16:03:33.733Z,32.31
2018-08-22T16:06:08.369Z,31.62
2018-08-22T16:08:42.989Z,31.46
2018-08-22T16:11:17.554Z,30.84
2018-08-22T16:13:52.301Z,30.79
2018-08-22T16:16:26.911Z,30.42
2018-08-22T16:19:04.044Z,29.92
2018-08-22T16:21:38.590Z,29.74
2018-08-22T16:24:13.349Z,29.60
2018-08-22T16:26:48.005Z,29.40
2018-08-22T16:29:22.645Z,29.42
2018-08-22T16:31:57.182Z,29.19
2018-08-22T16:34:31.757Z,29.19
2018-08-22T16:37:06.548Z,29.00
2018-08-22T16:39:43.004Z,28.92
2018-08-22T16:42:21.427Z,28.70
2018-08-22T16:44:56.049Z,28.56
2018-08-22T16:47:34.721Z,28.56
2018-08-22T16:50:09.241Z,28.40
2018-08-22T16:52:43.737Z,28.45
2018-08-22T16:55:22.452Z,28.14
2018-08-22T16:57:57.152Z,28.04
2018-08-22T17:00:37.936Z,28.00
2018-08-22T17:03:12.680Z,27.95
2018-08-22T17:05:47.342Z,27.95
2018-08-22T17:08:22.030Z,27.94
2018-08-22T17:11:00.256Z,27.92
2018-08-22T17:13:45.604Z,27.78
2018-08-22T17:16:20.517Z,27.79
2018-08-22T17:18:58.417Z,27.63
2018-08-22T17:21:33.638Z,27.55
2018-08-22T17:24:08.434Z,27.53
2018-08-22T17:26:43.979Z,27.44
2018-08-22T17:29:18.644Z,27.43
2018-08-22T17:31:58.516Z,27.42
2018-08-22T17:34:33.387Z,27.23
2018-08-22T17:37:09.502Z,27.13
2018-08-22T17:39:44.846Z,27.11
2018-08-22T17:42:19.344Z,27.09
2018-08-22T17:44:53.813Z,26.88
2018-08-22T17:47:28.402Z,26.84
2018-08-22T17:50:07.324Z,26.78
2018-08-22T17:52:41.701Z,26.75
2018-08-22T17:55:17.069Z,26.64
2018-08-22T17:57:51.601Z,26.61
2018-08-22T18:00:28.569Z,26.54
2018-08-22T18:03:03.203Z,26.48
2018-08-22T18:05:37.778Z,26.49
2018-08-22T18:08:12.946Z,26.33
2018-08-22T18:10:47.685Z,26.34
2018-08-22T18:13:22.376Z,26.18
2018-08-22T18:15:56.890Z,26.03
2018-08-22T18:18:31.405Z,25.92
2018-08-22T18:21:05.840Z,25.84
2018-08-22T18:23:45.413Z,25.76
2018-08-22T18:26:20.051Z,25.80
2018-08-22T18:28:54.740Z,25.69
2018-08-22T18:31:29.265Z,25.64
2018-08-22T18:34:03.913Z,25.43
2018-08-22T18:36:38.417Z,25.38
2018-08-22T18:39:15.221Z,25.33
2018-08-22T18:41:49.717Z,25.26
2018-08-22T18:44:24.155Z,25.27
2018-08-22T18:46:58.688Z,25.20
2018-08-22T18:49:33.261Z,25.00
2018-08-22T18:52:07.769Z,25.11
2018-08-22T18:54:42.357Z,24.86
2018-08-22T18:57:17.097Z,24.67
2018-08-22T18:59:51.940Z,24.59
2018-08-22T19:02:27.593Z,24.44
2018-08-22T19:05:34.783Z,24.33
2018-08-22T19:08:11.028Z,24.18
2018-08-22T19:10:47.955Z,24.07
2018-08-22T19:13:23.898Z,24.13
2018-08-22T19:16:00.748Z,24.22
2018-08-22T19:18:35.569Z,24.01
2018-08-22T19:21:11.132Z,23.84
2018-08-22T19:23:46.849Z,23.73
2018-08-22T19:26:21.598Z,23.72
2018-08-22T19:28:58.002Z,23.73
2018-08-22T19:31:32.419Z,23.89
2018-08-22T19:34:06.961Z,23.74
2018-08-22T19:36:42.045Z,23.75
2018-08-22T19:39:17.453Z,23.79
2018-08-22T19:41:52.065Z,23.71
2018-08-22T19:44:26.677Z,23.85
2018-08-22T19:47:01.251Z,23.80
2018-08-22T19:49:35.864Z,23.70
2018-08-22T19:52:10.401Z,23.59
2018-08-22T19:54:44.973Z,23.54
2018-08-22T19:57:23.857Z,23.65
2018-08-22T19:59:58.339Z,23.65
2018-08-22T20:02:33.225Z,23.82
2018-08-22T20:05:09.257Z,23.83
2018-08-22T20:07:43.765Z,23.84
2018-08-22T20:10:22.508Z,23.79
2018-08-22T20:12:57.528Z,23.82
2018-08-22T20:15:32.064Z,23.88
2018-08-22T20:18:06.608Z,23.84
2018-08-22T20:20:41.279Z,23.82
2018-08-22T20:23:16.106Z,23.82
2018-08-22T20:25:50.746Z,23.79
2018-08-22T20:28:25.421Z,23.68
2018-08-22T20:31:04.156Z,23.72
2018-08-22T20:33:39.585Z,23.60
2018-08-22T20:36:14.189Z,23.63
2018-08-22T20:38:48.777Z,23.56
2018-08-22T20:41:23.442Z,23.57
2018-08-22T20:43:58.118Z,23.43
2018-08-22T20:46:32.688Z,23.47
2018-08-22T20:49:07.341Z,23.47
2018-08-22T20:51:41.991Z,23.32
2018-08-22T20:54:23.981Z,23.20
2018-08-22T20:57:00.180Z,23.34
2018-08-22T20:59:34.745Z,23.19
2018-08-22T21:02:09.347Z,23.21
2018-08-22T21:04:43.870Z,23.11
2018-08-22T21:07:30.746Z,22.90
2018-08-22T21:10:05.322Z,22.95
2018-08-22T21:12:40.007Z,22.92
2018-08-22T21:15:14.612Z,22.92
2018-08-22T21:17:49.269Z,22.90
2018-08-22T21:20:24.881Z,22.69
2018-08-22T21:23:09.153Z,22.64
2018-08-22T21:31:44.663Z,22.49
2018-08-22T21:34:21.526Z,22.47
2018-08-22T21:36:56.130Z,22.44
2018-08-22T21:39:30.661Z,22.43
2018-08-22T21:42:05.161Z,22.39
2018-08-22T21:44:39.725Z,22.42
2018-08-22T21:47:14.384Z,22.39
2018-08-22T21:49:49.097Z,22.30
2018-08-22T21:52:23.708Z,22.23
2018-08-22T21:54:58.188Z,22.16
2018-08-22T21:57:32.718Z,22.06
2018-08-22T22:00:10.493Z,22.15
2018-08-22T22:02:45.336Z,22.09
2018-08-22T22:05:24.029Z,22.13
2018-08-22T22:07:58.737Z,22.10
2018-08-22T22:10:33.257Z,22.02
2018-08-22T22:13:08.448Z,21.97
2018-08-22T22:15:45.325Z,21.89
2018-08-22T22:18:22.976Z,21.92
2018-08-22T22:21:15.173Z,21.84
2018-08-22T22:23:49.985Z,21.86
2018-08-22T22:26:24.589Z,21.96
2018-08-22T22:28:59.289Z,21.99
2018-08-22T22:31:33.983Z,21.90
2018-08-22T22:34:10.226Z,21.79
2018-08-22T22:36:44.947Z,21.85
2018-08-22T22:39:33.956Z,21.89
2018-08-22T22:42:14.897Z,21.96
2018-08-22T22:44:50.673Z,21.84
2018-08-22T22:47:28.473Z,21.80
2018-08-22T22:50:04.181Z,21.70
2018-08-22T22:52:43.097Z,21.80
2018-08-22T22:55:17.568Z,21.83
2018-08-22T22:57:52.283Z,21.70
2018-08-22T23:00:29.268Z,21.70
2018-08-22T23:03:07.412Z,21.66
2018-08-22T23:05:41.937Z,21.66
2018-08-22T23:08:16.506Z,21.62
2018-08-22T23:10:51.059Z,21.51
2018-08-22T23:13:27.219Z,21.55
2018-08-22T23:16:08.201Z,21.43
2018-08-22T23:18:42.944Z,21.35
2018-08-22T23:21:17.636Z,21.25
2018-08-22T23:23:52.265Z,21.22
2018-08-22T23:26:27.017Z,21.19
2018-08-22T23:29:01.813Z,21.17
2018-08-22T23:31:36.490Z,21.24
2018-08-22T23:34:11.194Z,21.28
2018-08-22T23:36:45.817Z,21.21
2018-08-22T23:39:22.688Z,21.21
2018-08-22T23:41:57.437Z,21.16
2018-08-22T23:44:32.065Z,21.17
2018-08-22T23:47:06.653Z,21.06
2018-08-22T23:49:45.284Z,20.99
2018-08-22T23:52:19.744Z,20.87
2018-08-22T23:54:54.356Z,20.84
2018-08-22T23:57:28.920Z,20.82
